createdAt,value
2023-05-19T00:00:41.584Z,1157.00
2023-05-19T00:01:41.523Z,1141.00
2023-05-19T00:02:41.652Z,1231.00
2023-05-19T00:03:41.633Z,1283.00
2023-05-19T00:04:41.648Z,1324.00
2023-05-19T00:05:41.751Z,1341.00
2023-05-19T00:06:41.702Z,1251.00
2023-05-19T00:07:41.725Z,1302.00
2023-05-19T00:08:41.745Z,1318.00
2023-05-19T00:09:41.773Z,1293.00
2023-05-19T00:10:41.833Z,1220.00
2023-05-19T00:11:41.908Z,1265.00
2023-05-19T00:12:41.986Z,1379.00
2023-05-19T00:13:41.994Z,1279.00
2023-05-19T00:14:42.003Z,1201.00
2023-05-19T00:15:42.048Z,1162.00
2023-05-19T00:16:42.025Z,1248.00
2023-05-19T00:17:42.139Z,1209.00
2023-05-19T00:18:42.159Z,1136.00
2023-05-19T00:19:42.170Z,1146.00
2023-05-19T00:20:42.249Z,1224.00
2023-05-19T00:21:42.315Z,1275.00
2023-05-19T00:22:42.377Z,1328.00
2023-05-19T00:23:42.436Z,1295.00
2023-05-19T00:24:42.489Z,1391.00
2023-05-19T00:25:42.537Z,1441.00
2023-05-19T00:26:42.651Z,1463.00
2023-05-19T00:27:42.686Z,1486.00
2023-05-19T00:28:42.736Z,1572.00
2023-05-19T00:29:42.833Z,1596.00
2023-05-19T00:30:42.879Z,1377.00
2023-05-19T00:31:42.929Z,1469.00
2023-05-19T00:32:42.997Z,1532.00
2023-05-19T00:33:43.020Z,1719.00
2023-05-19T00:34:43.049Z,1808.00
2023-05-19T00:35:43.201Z,1703.00
2023-05-19T00:36:43.206Z,1873.00
2023-05-19T00:37:43.268Z,1776.00
2023-05-19T00:38:43.299Z,1659.00
2023-05-19T00:39:43.375Z,1673.00
2023-05-19T00:40:43.436Z,1711.00
2023-05-19T00:41:43.458Z,1768.00
2023-05-19T00:42:43.526Z,1655.00
2023-05-19T00:43:43.580Z,1618.00
2023-05-19T00:44:43.640Z,1643.00
2023-05-19T00:45:43.710Z,1676.00
2023-05-19T00:46:43.819Z,1641.00
2023-05-19T00:47:43.854Z,1745.00
2023-05-19T00:48:43.824Z,1701.00
2023-05-19T00:49:43.826Z,1672.00
2023-05-19T00:50:43.874Z,1813.00
2023-05-19T00:51:43.871Z,1883.00
2023-05-19T00:52:43.908Z,1833.00
2023-05-19T00:53:43.974Z,1775.00
2023-05-19T00:54:44.020Z,1762.00
2023-05-19T00:55:44.095Z,1881.00
2023-05-19T00:56:44.140Z,1894.00
2023-05-19T00:57:44.147Z,1899.00
2023-05-19T00:58:44.189Z,1819.00
2023-05-19T00:59:44.236Z,1905.00
2023-05-19T01:00:44.292Z,2076.00
2023-05-19T01:01:44.311Z,2023.00
2023-05-19T01:02:44.390Z,2008.00
2023-05-19T01:03:44.487Z,1970.00
2023-05-19T01:04:44.417Z,1979.00
2023-05-19T01:05:44.454Z,1884.00
2023-05-19T01:06:44.454Z,1816.00
2023-05-19T01:07:44.475Z,1832.00
2023-05-19T01:08:44.454Z,1804.00
2023-05-19T01:09:44.433Z,1828.00
2023-05-19T01:10:44.485Z,1607.00
2023-05-19T01:11:44.563Z,1678.00
2023-05-19T01:12:44.554Z,1708.00
2023-05-19T01:13:44.520Z,1704.00
2023-05-19T01:14:44.514Z,1700.00
2023-05-19T01:15:44.550Z,1713.00
2023-05-19T01:16:44.597Z,1738.00
2023-05-19T01:17:44.540Z,1884.00
2023-05-19T01:18:44.612Z,1993.00
2023-05-19T01:19:44.565Z,1969.00
2023-05-19T01:20:44.568Z,1946.00
2023-05-19T01:21:44.680Z,1957.00
2023-05-19T01:22:44.569Z,1962.00
2023-05-19T01:23:44.577Z,1729.00
2023-05-19T01:24:44.609Z,1610.00
2023-05-19T01:25:44.660Z,1668.00
2023-05-19T01:26:44.605Z,1819.00
2023-05-19T01:27:44.624Z,1840.00
2023-05-19T01:28:44.582Z,1841.00
2023-05-19T01:29:44.574Z,1745.00
2023-05-19T01:30:44.667Z,1608.00
2023-05-19T01:31:44.610Z,1578.00
2023-05-19T01:32:44.609Z,1637.00
2023-05-19T01:33:44.628Z,1691.00
2023-05-19T01:34:44.613Z,1668.00
2023-05-19T01:35:44.623Z,1605.00
2023-05-19T01:36:44.701Z,1797.00
2023-05-19T01:37:44.681Z,1912.00
2023-05-19T01:38:44.686Z,1905.00
2023-05-19T01:39:44.737Z,1934.00
2023-05-19T01:40:44.730Z,1985.00
2023-05-19T01:41:44.725Z,2086.00
2023-05-19T01:42:44.779Z,2124.00
2023-05-19T01:43:44.780Z,2008.00
2023-05-19T01:44:44.745Z,1912.00
2023-05-19T01:45:44.797Z,2042.00
2023-05-19T01:46:44.815Z,1951.00
2023-05-19T01:47:44.841Z,1928.00
2023-05-19T01:48:44.811Z,1919.00
2023-05-19T01:49:44.824Z,2006.00
2023-05-19T01:50:44.829Z,1976.00
2023-05-19T01:51:44.831Z,1895.00
2023-05-19T01:52:44.855Z,2030.00
2023-05-19T01:53:44.867Z,2069.00
2023-05-19T01:54:45.085Z,2192.00
2023-05-19T01:55:44.899Z,2171.00
2023-05-19T01:56:44.883Z,2185.00
2023-05-19T01:57:44.868Z,2201.00
2023-05-19T01:58:44.868Z,2165.00
2023-05-19T01:59:44.902Z,2204.00
2023-05-19T02:00:44.928Z,2241.00
2023-05-19T02:01:45.086Z,2301.00
2023-05-19T02:02:44.987Z,2350.00
2023-05-19T02:03:44.923Z,2381.00
2023-05-19T02:04:45.008Z,2358.00
2023-05-19T02:05:44.937Z,2320.00
2023-05-19T02:06:44.938Z,2320.00
2023-05-19T02:07:45.015Z,2346.00
2023-05-19T02:08:44.920Z,2357.00
2023-05-19T02:09:44.972Z,2230.00
2023-05-19T02:10:45.009Z,2206.00
2023-05-19T02:11:44.994Z,2166.00
2023-05-19T02:12:45.012Z,2252.00
2023-05-19T02:13:44.997Z,2435.00
2023-05-19T02:14:45.031Z,2443.00
2023-05-19T02:15:45.056Z,2531.00
2023-05-19T02:16:45.132Z,2497.00
2023-05-19T02:17:45.120Z,2426.00
2023-05-19T02:18:45.249Z,2334.00
2023-05-19T02:19:45.140Z,2328.00
2023-05-19T02:20:45.184Z,2425.00
2023-05-19T02:21:45.234Z,2455.00
2023-05-19T02:22:45.239Z,2508.00
2023-05-19T02:23:45.316Z,2557.00
2023-05-19T02:24:45.297Z,2576.00
2023-05-19T02:25:45.342Z,2404.00
2023-05-19T02:26:45.386Z,2362.00
2023-05-19T02:27:45.378Z,2385.00
2023-05-19T02:28:45.425Z,2523.00
2023-05-19T02:29:45.430Z,2503.00
2023-05-19T02:30:45.494Z,2541.00
2023-05-19T02:31:45.578Z,2636.00
2023-05-19T02:32:45.567Z,2619.00
2023-05-19T02:33:45.598Z,2684.00
2023-05-19T02:34:45.704Z,2775.00
2023-05-19T02:35:45.673Z,2795.00
2023-05-19T02:36:45.691Z,3058.00
2023-05-19T02:37:45.733Z,3131.00
2023-05-19T02:38:45.788Z,3161.00
2023-05-19T02:39:45.824Z,3197.00
2023-05-19T02:40:45.877Z,3225.00
2023-05-19T02:41:45.911Z,3236.00
2023-05-19T02:42:45.950Z,3223.00
2023-05-19T02:43:46.001Z,3241.00
2023-05-19T02:44:46.026Z,3261.00
2023-05-19T02:45:46.101Z,3216.00
2023-05-19T02:46:46.232Z,3216.00
2023-05-19T02:47:46.318Z,3129.00
2023-05-19T02:48:46.251Z,2951.00
2023-05-19T02:49:46.289Z,2862.00
2023-05-19T02:50:46.371Z,2929.00
2023-05-19T02:51:46.416Z,2894.00
2023-05-19T02:52:46.475Z,2797.00
2023-05-19T02:53:46.475Z,2857.00
2023-05-19T02:54:46.523Z,2938.00
2023-05-19T02:55:46.598Z,2799.00
2023-05-19T02:56:46.594Z,2870.00
2023-05-19T02:57:46.659Z,2832.00
2023-05-19T02:58:46.702Z,2843.00
2023-05-19T02:59:46.777Z,2783.00
2023-05-19T03:00:46.801Z,2808.00
2023-05-19T03:01:46.907Z,2857.00
2023-05-19T03:02:47.073Z,2847.00
2023-05-19T03:03:47.097Z,2859.00
2023-05-19T03:04:47.023Z,2831.00
2023-05-19T03:05:47.110Z,2817.00
2023-05-19T03:06:47.118Z,2790.00
2023-05-19T03:07:47.183Z,2798.00
2023-05-19T03:08:47.235Z,2964.00
2023-05-19T03:09:47.323Z,3079.00
2023-05-19T03:10:47.361Z,2939.00
2023-05-19T03:11:47.425Z,3003.00
2023-05-19T03:12:47.420Z,2882.00
2023-05-19T03:13:47.478Z,2801.00
2023-05-19T03:14:47.565Z,2748.00
2023-05-19T03:15:47.672Z,2803.00
2023-05-19T03:16:47.839Z,2867.00
2023-05-19T03:17:47.833Z,2872.00
2023-05-19T03:18:47.877Z,2863.00
2023-05-19T03:19:47.823Z,2805.00
2023-05-19T03:20:47.904Z,2739.00
2023-05-19T03:21:47.958Z,2700.00
2023-05-19T03:22:48.013Z,2681.00
2023-05-19T03:23:48.059Z,2566.00
2023-05-19T03:24:48.122Z,2636.00
2023-05-19T03:25:48.184Z,2569.00
2023-05-19T03:26:48.221Z,2542.00
2023-05-19T03:27:48.299Z,2657.00
2023-05-19T03:28:48.359Z,2660.00
2023-05-19T03:29:48.431Z,2667.00
2023-05-19T03:30:48.491Z,2715.00
2023-05-19T03:31:48.535Z,2812.00
2023-05-19T03:32:48.684Z,2906.00
2023-05-19T03:33:48.635Z,2955.00
2023-05-19T03:34:48.697Z,2892.00
2023-05-19T03:35:48.779Z,2918.00
2023-05-19T03:36:48.834Z,2918.00
2023-05-19T03:37:48.898Z,2908.00
2023-05-19T03:38:48.963Z,2870.00
2023-05-19T03:39:48.925Z,2919.00
2023-05-19T03:40:49.016Z,2976.00
2023-05-19T03:41:49.064Z,2929.00
2023-05-19T03:42:49.070Z,2888.00
2023-05-19T03:43:49.128Z,2833.00
2023-05-19T03:44:49.173Z,2835.00
2023-05-19T03:45:49.288Z,2886.00
2023-05-19T03:46:49.298Z,2952.00
2023-05-19T03:47:49.379Z,3037.00
2023-05-19T03:48:49.355Z,3045.00
2023-05-19T03:49:49.369Z,2980.00
2023-05-19T03:50:49.388Z,2967.00
2023-05-19T03:51:49.380Z,2982.00
2023-05-19T03:52:49.403Z,2978.00
2023-05-19T03:53:49.428Z,2944.00
2023-05-19T03:54:49.427Z,2953.00
2023-05-19T03:55:49.404Z,3013.00
2023-05-19T03:56:49.463Z,3019.00
2023-05-19T03:57:49.419Z,3076.00
2023-05-19T03:58:49.460Z,3132.00
2023-05-19T03:59:49.492Z,3154.00
2023-05-19T04:00:49.554Z,3190.00
2023-05-19T04:01:49.558Z,3104.00
2023-05-19T04:02:49.725Z,3088.00
2023-05-19T04:03:49.581Z,3142.00
2023-05-19T04:04:49.665Z,3169.00
2023-05-19T04:05:49.597Z,3144.00
2023-05-19T04:06:49.586Z,3161.00
2023-05-19T04:07:49.619Z,3180.00
2023-05-19T04:08:49.610Z,3166.00
2023-05-19T04:09:49.682Z,3116.00
2023-05-19T04:10:49.696Z,3114.00
2023-05-19T04:11:49.690Z,3154.00
2023-05-19T04:12:50.020Z,3088.00
2023-05-19T04:13:49.680Z,3030.00
2023-05-19T04:14:49.690Z,3024.00
2023-05-19T04:15:49.723Z,3081.00
2023-05-19T04:16:49.745Z,3132.00
2023-05-19T04:17:49.735Z,3174.00
2023-05-19T04:18:49.816Z,3208.00
2023-05-19T04:19:49.784Z,3284.00
2023-05-19T04:20:49.851Z,3309.00
2023-05-19T04:21:49.912Z,3424.00
2023-05-19T04:22:49.943Z,3447.00
2023-05-19T04:23:50.027Z,3437.00
2023-05-19T04:24:50.037Z,3254.00
2023-05-19T04:25:50.130Z,3173.00
2023-05-19T04:26:50.144Z,3089.00
2023-05-19T04:27:50.174Z,2938.00
2023-05-19T04:28:50.177Z,2964.00
2023-05-19T04:29:50.197Z,2957.00
2023-05-19T04:30:50.234Z,2839.00
2023-05-19T04:31:50.208Z,2764.00
2023-05-19T04:32:50.291Z,2839.00
2023-05-19T04:33:50.197Z,2807.00
2023-05-19T04:34:50.254Z,2874.00
2023-05-19T04:35:50.331Z,3054.00
2023-05-19T04:36:52.457Z,3028.00
2023-05-19T04:37:50.266Z,2960.00
2023-05-19T04:38:50.245Z,2798.00
2023-05-19T04:39:50.239Z,2470.00
2023-05-19T04:40:50.451Z,2420.00
2023-05-19T04:41:50.249Z,2333.00
2023-05-19T04:42:50.220Z,2299.00
2023-05-19T04:43:50.252Z,2276.00
2023-05-19T04:44:50.201Z,2346.00
2023-05-19T04:45:50.260Z,2379.00
2023-05-19T04:46:50.330Z,2457.00
2023-05-19T04:47:50.203Z,2453.00
2023-05-19T04:48:51.389Z,2604.00
2023-05-19T04:49:50.221Z,2781.00
2023-05-19T04:50:50.190Z,2824.00
2023-05-19T04:51:50.161Z,2834.00
2023-05-19T04:52:50.165Z,2803.00
2023-05-19T04:53:50.158Z,2799.00
2023-05-19T04:54:50.209Z,2881.00
2023-05-19T04:55:50.143Z,2904.00
2023-05-19T04:56:50.129Z,2886.00
2023-05-19T04:57:50.132Z,2729.00
2023-05-19T04:58:50.088Z,2705.00
2023-05-19T04:59:50.065Z,2684.00
2023-05-19T05:02:09.898Z,500.00
2023-05-19T05:03:09.923Z,500.00
2023-05-19T05:04:09.904Z,500.00
2023-05-19T05:05:09.843Z,500.00
2023-05-19T05:06:09.837Z,500.00
2023-05-19T05:07:09.794Z,518.00
2023-05-19T05:08:09.841Z,503.00
2023-05-19T05:09:09.797Z,529.00
2023-05-19T05:10:09.821Z,503.00
2023-05-19T05:11:09.809Z,489.00
2023-05-19T05:12:09.873Z,489.00
2023-05-19T05:13:11.735Z,503.00
2023-05-19T05:14:09.798Z,487.00
2023-05-19T05:15:09.730Z,500.00
2023-05-19T05:16:09.851Z,501.00
2023-05-19T05:17:09.714Z,527.00
2023-05-19T05:18:09.770Z,500.00
2023-05-19T05:19:09.800Z,497.00
2023-05-19T05:20:09.749Z,499.00
2023-05-19T05:21:09.848Z,525.00
2023-05-19T05:22:09.834Z,533.00
2023-05-19T05:23:09.903Z,550.00
2023-05-19T05:24:09.880Z,534.00
2023-05-19T05:25:09.920Z,513.00
2023-05-19T05:26:09.961Z,500.00
2023-05-19T05:27:09.965Z,505.00
2023-05-19T05:28:09.967Z,507.00
2023-05-19T05:29:09.981Z,517.00
2023-05-19T05:30:09.989Z,510.00
2023-05-19T05:31:10.098Z,528.00
2023-05-19T05:32:10.063Z,500.00
2023-05-19T05:33:10.212Z,477.00
2023-05-19T05:34:10.120Z,421.00
2023-05-19T05:35:10.129Z,468.00
2023-05-19T05:36:10.137Z,512.00
2023-05-19T05:37:10.198Z,525.00
2023-05-19T05:38:10.144Z,534.00
2023-05-19T05:39:10.210Z,579.00
2023-05-19T05:40:10.250Z,569.00
2023-05-19T05:41:10.232Z,625.00
2023-05-19T05:42:10.226Z,711.00
2023-05-19T05:43:10.284Z,725.00
2023-05-19T05:44:10.296Z,780.00
2023-05-19T05:45:10.329Z,807.00
2023-05-19T05:47:30.304Z,500.00
2023-05-19T05:48:30.251Z,500.00
2023-05-19T05:49:30.240Z,500.00
2023-05-19T05:50:30.220Z,500.00
2023-05-19T05:51:30.234Z,500.00
2023-05-19T05:52:30.206Z,509.00
2023-05-19T05:53:30.215Z,501.00
2023-05-19T05:54:30.191Z,501.00
2023-05-19T05:55:30.349Z,500.00
2023-05-19T05:56:30.183Z,491.00
2023-05-19T05:57:30.180Z,526.00
2023-05-19T05:58:30.177Z,596.00
2023-05-19T05:59:30.165Z,606.00
2023-05-19T06:00:30.419Z,634.00
2023-05-19T06:01:30.144Z,626.00
2023-05-19T06:02:30.235Z,616.00
2023-05-19T06:03:30.218Z,624.00
2023-05-19T06:04:30.180Z,706.00
2023-05-19T06:05:30.293Z,862.00
2023-05-19T06:06:30.205Z,901.00
2023-05-19T06:07:30.248Z,876.00
2023-05-19T06:08:30.260Z,726.00
2023-05-19T06:09:30.371Z,697.00
2023-05-19T06:10:30.439Z,699.00
2023-05-19T06:11:30.364Z,843.00
2023-05-19T06:12:30.349Z,822.00
2023-05-19T06:13:30.452Z,744.00
2023-05-19T06:14:30.427Z,794.00
2023-05-19T06:15:30.541Z,849.00
2023-05-19T06:16:30.550Z,843.00
2023-05-19T06:17:30.523Z,852.00
2023-05-19T06:18:30.592Z,772.00
2023-05-19T06:19:30.594Z,796.00
2023-05-19T06:20:30.731Z,939.00
2023-05-19T06:21:30.937Z,1121.00
2023-05-19T06:22:30.575Z,1227.00
2023-05-19T06:23:30.639Z,1234.00
2023-05-19T06:24:30.743Z,1167.00
2023-05-19T06:25:30.920Z,1373.00
2023-05-19T06:26:30.854Z,1322.00
2023-05-19T06:27:32.567Z,1199.00
2023-05-19T06:28:30.767Z,1155.00
2023-05-19T06:29:30.763Z,1121.00
2023-05-19T06:30:30.942Z,1030.00
2023-05-19T06:31:30.832Z,1093.00
2023-05-19T06:32:30.827Z,967.00
2023-05-19T06:33:30.811Z,901.00
2023-05-19T06:34:30.803Z,975.00
2023-05-19T06:35:30.890Z,991.00
2023-05-19T06:36:30.732Z,661.00
2023-05-19T06:37:30.728Z,564.00
2023-05-19T06:38:30.724Z,563.00
2023-05-19T06:39:30.739Z,574.00
2023-05-19T06:40:30.934Z,524.00
2023-05-19T06:41:30.745Z,508.00
2023-05-19T06:42:31.887Z,511.00
2023-05-19T06:43:30.667Z,533.00
2023-05-19T06:44:30.669Z,500.00
2023-05-19T06:45:30.685Z,517.00
2023-05-19T06:46:30.708Z,499.00
2023-05-19T06:47:30.767Z,500.00
2023-05-19T06:48:30.706Z,504.00
2023-05-19T06:49:31.927Z,544.00
2023-05-19T06:50:30.685Z,426.00
2023-05-19T06:51:31.687Z,400.00
2023-05-19T06:52:30.601Z,408.00
2023-05-19T06:53:30.631Z,465.00
2023-05-19T06:54:30.551Z,513.00
2023-05-19T06:55:30.647Z,565.00
2023-05-19T06:56:30.632Z,525.00
2023-05-19T06:57:30.557Z,488.00
2023-05-19T06:58:30.666Z,502.00
2023-05-19T06:59:30.555Z,500.00
2023-05-19T07:00:30.554Z,469.00
2023-05-19T07:01:30.667Z,499.00
2023-05-19T07:02:30.643Z,553.00
2023-05-19T07:03:30.698Z,674.00
2023-05-19T07:04:30.574Z,837.00
2023-05-19T07:05:30.503Z,1125.00
2023-05-19T07:06:30.490Z,856.00
2023-05-19T07:07:30.537Z,550.00
2023-05-19T07:08:30.485Z,500.00
2023-05-19T07:09:30.510Z,509.00
2023-05-19T07:10:30.771Z,520.00
2023-05-19T07:11:30.494Z,591.00
2023-05-19T07:12:30.577Z,575.00
2023-05-19T07:13:30.532Z,534.00
2023-05-19T07:14:30.445Z,605.00
2023-05-19T07:15:30.451Z,680.00
2023-05-19T07:16:30.537Z,658.00
2023-05-19T07:17:30.479Z,664.00
2023-05-19T07:18:30.573Z,790.00
2023-05-19T07:19:30.718Z,981.00
2023-05-19T07:20:30.854Z,959.00
2023-05-19T07:21:30.711Z,615.00
2023-05-19T07:22:30.734Z,560.00
2023-05-19T07:23:30.818Z,541.00
2023-05-19T07:24:30.802Z,526.00
2023-05-19T07:25:30.823Z,493.00
2023-05-19T07:26:31.204Z,483.00
2023-05-19T07:27:30.945Z,517.00
2023-05-19T07:28:30.887Z,459.00
2023-05-19T07:29:30.964Z,468.00
2023-05-19T07:30:31.313Z,498.00
2023-05-19T07:31:31.106Z,500.00
2023-05-19T07:32:31.108Z,494.00
2023-05-19T07:33:31.098Z,502.00
2023-05-19T07:34:31.088Z,511.00
2023-05-19T07:35:31.107Z,549.00
2023-05-19T07:36:31.221Z,601.00
2023-05-19T07:37:31.228Z,627.00
2023-05-19T07:38:31.273Z,603.00
2023-05-19T07:39:31.170Z,701.00
2023-05-19T07:40:31.617Z,699.00
2023-05-19T07:41:31.223Z,743.00
2023-05-19T07:42:31.282Z,1033.00
2023-05-19T07:43:31.359Z,655.00
2023-05-19T07:44:31.452Z,704.00
2023-05-19T07:45:31.450Z,484.00
2023-05-19T07:46:31.562Z,465.00
2023-05-19T07:47:31.543Z,517.00
2023-05-19T07:48:31.604Z,536.00
2023-05-19T07:49:31.581Z,518.00
2023-05-19T07:50:31.747Z,500.00
2023-05-19T07:51:31.652Z,529.00
2023-05-19T07:52:31.630Z,589.00
2023-05-19T07:53:31.695Z,687.00
2023-05-19T07:54:31.745Z,828.00
2023-05-19T07:55:31.745Z,965.00
2023-05-19T07:56:31.798Z,978.00
2023-05-19T07:57:31.868Z,893.00
2023-05-19T07:58:31.948Z,1140.00
2023-05-19T07:59:31.982Z,1221.00
2023-05-19T08:00:32.207Z,1160.00
2023-05-19T08:01:32.019Z,1140.00
2023-05-19T08:02:32.134Z,1019.00
2023-05-19T08:03:32.163Z,1140.00
2023-05-19T08:04:31.986Z,957.00
2023-05-19T08:05:32.535Z,1132.00
2023-05-19T08:06:32.034Z,1168.00
2023-05-19T08:07:32.033Z,1281.00
2023-05-19T08:08:32.015Z,1383.00
2023-05-19T08:09:32.138Z,1477.00
2023-05-19T08:10:32.237Z,1545.00
2023-05-19T08:11:32.174Z,1448.00
2023-05-19T08:12:32.262Z,1182.00
2023-05-19T08:13:32.183Z,988.00
2023-05-19T08:14:32.298Z,1085.00
2023-05-19T08:15:32.870Z,1295.00
2023-05-19T08:16:32.461Z,1339.00
2023-05-19T08:17:32.564Z,1392.00
2023-05-19T08:18:32.531Z,993.00
2023-05-19T08:19:32.709Z,883.00
2023-05-19T08:20:32.936Z,636.00
2023-05-19T08:21:32.685Z,640.00
2023-05-19T08:22:32.765Z,780.00
2023-05-19T08:23:32.795Z,763.00
2023-05-19T08:24:32.904Z,582.00
2023-05-19T08:25:32.856Z,500.00
2023-05-19T08:26:34.121Z,511.00
2023-05-19T08:27:32.946Z,496.00
2023-05-19T08:28:32.903Z,506.00
2023-05-19T08:29:32.990Z,505.00
2023-05-19T08:30:33.173Z,570.00
2023-05-19T08:31:33.047Z,637.00
2023-05-19T08:32:33.204Z,626.00
2023-05-19T08:33:33.058Z,586.00
2023-05-19T08:34:33.124Z,589.00
2023-05-19T08:35:33.067Z,627.00
2023-05-19T08:36:33.108Z,521.00
2023-05-19T08:37:34.070Z,490.00
2023-05-19T08:38:33.268Z,542.00
2023-05-19T08:39:33.269Z,551.00
2023-05-19T08:40:33.622Z,507.00
2023-05-19T08:41:33.424Z,542.00
2023-05-19T08:42:33.470Z,541.00
2023-05-19T08:43:33.513Z,529.00
2023-05-19T08:44:33.560Z,578.00
2023-05-19T08:45:33.735Z,659.00
2023-05-19T08:46:33.711Z,605.00
2023-05-19T08:47:33.834Z,598.00
2023-05-19T08:48:33.803Z,544.00
2023-05-19T08:49:33.814Z,509.00
2023-05-19T08:50:34.052Z,435.00
2023-05-19T08:51:33.877Z,466.00
2023-05-19T08:52:33.923Z,636.00
2023-05-19T08:53:34.752Z,759.00
2023-05-19T08:54:33.963Z,847.00
2023-05-19T08:55:34.424Z,650.00
2023-05-19T08:56:34.015Z,645.00
2023-05-19T08:57:33.953Z,624.00
2023-05-19T08:58:34.031Z,578.00
2023-05-19T08:59:34.043Z,557.00
2023-05-19T09:00:34.350Z,613.00
2023-05-19T09:02:34.224Z,641.00
2023-05-19T09:03:34.203Z,596.00
2023-05-19T09:04:34.395Z,586.00
2023-05-19T09:05:34.479Z,684.00
2023-05-19T09:06:34.179Z,938.00
2023-05-19T09:07:34.208Z,832.00
2023-05-19T09:08:34.214Z,682.00
2023-05-19T09:09:34.341Z,720.00
2023-05-19T09:10:34.363Z,901.00
2023-05-19T09:11:34.408Z,1080.00
2023-05-19T09:12:34.473Z,1100.00
2023-05-19T09:13:34.537Z,756.00
2023-05-19T09:14:34.534Z,878.00
2023-05-19T09:15:34.925Z,760.00
2023-05-19T09:16:34.602Z,544.00
2023-05-19T09:17:34.615Z,540.00
2023-05-19T09:18:34.702Z,570.00
2023-05-19T09:19:34.776Z,612.00
2023-05-19T09:20:34.675Z,622.00
2023-05-19T09:21:34.708Z,689.00
2023-05-19T09:22:34.703Z,650.00
2023-05-19T09:23:34.720Z,596.00
2023-05-19T09:24:34.784Z,611.00
2023-05-19T09:25:35.002Z,615.00
2023-05-19T09:26:34.780Z,664.00
2023-05-19T09:27:34.833Z,779.00
2023-05-19T09:28:34.830Z,648.00
2023-05-19T09:29:34.851Z,603.00
2023-05-19T09:30:34.868Z,571.00
2023-05-19T09:31:34.911Z,485.00
2023-05-19T09:32:34.925Z,508.00
2023-05-19T09:33:34.933Z,566.00
2023-05-19T09:34:34.892Z,603.00
2023-05-19T09:35:35.251Z,608.00
2023-05-19T09:36:34.904Z,625.00
2023-05-19T09:37:34.918Z,676.00
2023-05-19T09:38:35.019Z,583.00
2023-05-19T09:39:35.047Z,579.00
2023-05-19T09:40:35.145Z,522.00
2023-05-19T09:41:35.154Z,598.00
2023-05-19T09:42:35.183Z,985.00
2023-05-19T09:43:35.201Z,991.00
2023-05-19T09:44:35.238Z,871.00
2023-05-19T09:45:35.247Z,650.00
2023-05-19T09:46:35.426Z,584.00
2023-05-19T09:47:35.378Z,658.00
2023-05-19T09:48:35.307Z,619.00
2023-05-19T09:49:35.321Z,562.00
2023-05-19T09:50:35.359Z,591.00
2023-05-19T09:51:35.426Z,625.00
2023-05-19T09:52:35.527Z,534.00
2023-05-19T09:53:35.528Z,506.00
2023-05-19T09:54:35.554Z,600.00
2023-05-19T09:55:35.604Z,518.00
2023-05-19T09:56:35.530Z,609.00
2023-05-19T09:57:35.659Z,659.00
2023-05-19T09:58:35.725Z,735.00
2023-05-19T09:59:35.676Z,796.00
2023-05-19T10:00:35.680Z,751.00
2023-05-19T10:01:35.691Z,546.00
2023-05-19T10:02:35.718Z,599.00
2023-05-19T10:03:35.691Z,530.00
2023-05-19T10:04:35.720Z,607.00
2023-05-19T10:05:35.889Z,582.00
2023-05-19T10:06:35.725Z,581.00
2023-05-19T10:07:35.825Z,530.00
2023-05-19T10:08:35.747Z,515.00
2023-05-19T10:09:35.816Z,420.00
2023-05-19T10:10:35.902Z,400.00
2023-05-19T10:11:35.904Z,459.00
2023-05-19T10:12:35.872Z,570.00
2023-05-19T10:13:35.976Z,611.00
2023-05-19T10:14:35.975Z,551.00
2023-05-19T10:15:40.642Z,616.00
2023-05-19T10:16:37.080Z,618.00
2023-05-19T10:17:35.966Z,624.00
2023-05-19T10:18:37.539Z,660.00
2023-05-19T10:19:36.008Z,655.00
2023-05-19T10:20:35.936Z,658.00
2023-05-19T10:21:35.936Z,572.00
2023-05-19T10:22:35.985Z,542.00
2023-05-19T10:23:35.922Z,594.00
2023-05-19T10:24:35.934Z,588.00
2023-05-19T10:25:35.908Z,703.00
2023-05-19T10:26:35.968Z,713.00
2023-05-19T10:27:36.512Z,971.00
2023-05-19T10:28:35.904Z,958.00
2023-05-19T10:29:35.878Z,612.00
2023-05-19T10:30:35.891Z,584.00
2023-05-19T10:31:35.984Z,823.00
2023-05-19T10:32:35.923Z,971.00
2023-05-19T10:33:35.850Z,1036.00
2023-05-19T10:34:35.916Z,966.00
2023-05-19T10:35:36.099Z,1036.00
2023-05-19T10:36:35.910Z,1256.00
2023-05-19T10:37:35.856Z,1506.00
2023-05-19T10:38:35.843Z,1601.00
2023-05-19T10:39:35.836Z,1612.00
2023-05-19T10:40:35.788Z,1394.00
2023-05-19T10:41:35.772Z,1358.00
2023-05-19T10:42:35.764Z,1259.00
2023-05-19T10:43:35.795Z,1406.00
2023-05-19T10:44:35.791Z,1622.00
2023-05-19T10:45:36.011Z,1270.00
2023-05-19T10:46:35.733Z,1422.00
2023-05-19T10:47:35.821Z,1245.00
2023-05-19T10:48:35.732Z,1147.00
2023-05-19T10:49:35.743Z,1169.00
2023-05-19T10:50:35.753Z,1332.00
2023-05-19T10:51:35.745Z,1339.00
2023-05-19T10:52:35.737Z,1511.00
2023-05-19T10:53:35.787Z,1519.00
2023-05-19T10:54:35.762Z,1590.00
2023-05-19T10:55:35.809Z,1351.00
2023-05-19T10:56:35.706Z,1217.00
2023-05-19T10:57:35.707Z,1353.00
2023-05-19T10:58:35.687Z,1267.00
2023-05-19T10:59:35.682Z,1384.00
2023-05-19T11:00:35.695Z,1492.00
2023-05-19T11:01:35.747Z,1662.00
2023-05-19T11:02:35.708Z,1879.00
2023-05-19T11:03:35.691Z,1756.00
2023-05-19T11:04:35.671Z,1492.00
2023-05-19T11:05:35.812Z,1317.00
2023-05-19T11:06:35.638Z,1405.00
2023-05-19T11:07:35.633Z,1670.00
2023-05-19T11:08:35.658Z,1282.00
2023-05-19T11:09:40.593Z,1429.00
2023-05-19T11:10:36.598Z,1415.00
2023-05-19T11:11:35.562Z,1276.00
2023-05-19T11:12:35.660Z,1208.00
2023-05-19T11:13:36.730Z,1136.00
2023-05-19T11:14:35.572Z,1180.00
2023-05-19T11:15:35.601Z,1017.00
2023-05-19T11:16:35.659Z,1312.00
2023-05-19T11:17:35.579Z,1338.00
2023-05-19T11:18:35.607Z,1302.00
2023-05-19T11:19:35.652Z,1178.00
2023-05-19T11:20:35.576Z,1282.00
2023-05-19T11:21:35.612Z,1125.00
2023-05-19T11:22:36.146Z,1118.00
2023-05-19T11:23:35.798Z,1057.00
2023-05-19T11:24:35.653Z,1110.00
2023-05-19T11:25:35.653Z,1205.00
2023-05-19T11:26:35.691Z,1499.00
2023-05-19T11:27:35.701Z,1464.00
2023-05-19T11:28:35.747Z,1336.00
2023-05-19T11:29:35.807Z,1336.00
2023-05-19T11:30:35.719Z,1354.00
2023-05-19T11:31:35.858Z,1218.00
2023-05-19T11:32:35.982Z,1232.00
2023-05-19T11:33:35.824Z,1430.00
2023-05-19T11:34:35.854Z,1398.00
2023-05-19T11:35:36.372Z,1417.00
2023-05-19T11:36:35.863Z,1525.00
2023-05-19T11:37:35.955Z,1527.00
2023-05-19T11:38:35.977Z,1523.00
2023-05-19T11:39:36.072Z,1691.00
2023-05-19T11:40:36.089Z,1800.00
2023-05-19T11:41:36.100Z,1596.00
2023-05-19T11:42:36.159Z,1392.00
2023-05-19T11:43:36.188Z,1563.00
2023-05-19T11:44:36.292Z,1604.00
2023-05-19T11:45:36.536Z,1597.00
2023-05-19T11:46:36.277Z,1676.00
2023-05-19T11:47:47.414Z,1368.00
2023-05-19T11:48:37.343Z,1219.00
2023-05-19T11:49:36.267Z,1271.00
2023-05-19T11:50:36.282Z,1408.00
2023-05-19T11:51:36.242Z,1375.00
2023-05-19T11:52:36.275Z,1260.00
2023-05-19T11:53:36.220Z,715.00
2023-05-19T11:54:36.186Z,780.00
2023-05-19T11:55:36.222Z,798.00
2023-05-19T11:56:36.184Z,1147.00
2023-05-19T11:57:36.192Z,1373.00
2023-05-19T11:58:36.190Z,1342.00
2023-05-19T11:59:37.734Z,1260.00
2023-05-19T12:00:36.213Z,1025.00
2023-05-19T12:01:36.219Z,1123.00
2023-05-19T12:02:36.417Z,1016.00
2023-05-19T12:03:36.471Z,1073.00
2023-05-19T12:04:36.287Z,1239.00
2023-05-19T12:05:39.844Z,1048.00
2023-05-19T12:06:37.315Z,1049.00
2023-05-19T12:07:36.361Z,1000.00
2023-05-19T12:08:36.188Z,1037.00
2023-05-19T12:09:36.257Z,784.00
2023-05-19T12:10:36.236Z,638.00
2023-05-19T12:11:36.206Z,557.00
2023-05-19T12:12:36.186Z,550.00
2023-05-19T12:13:36.202Z,512.00
2023-05-19T12:14:36.230Z,500.00
2023-05-19T12:15:36.229Z,560.00
2023-05-19T12:16:36.252Z,595.00
2023-05-19T12:17:36.236Z,497.00
2023-05-19T12:18:36.184Z,540.00
2023-05-19T12:19:36.260Z,524.00